createdAt,value
2019-05-29T00:00:25.691Z,8.99
2019-05-29T00:01:25.655Z,8.99
2019-05-29T00:02:25.668Z,8.96
2019-05-29T00:03:25.668Z,8.96
2019-05-29T00:04:25.627Z,8.98
2019-05-29T00:05:25.658Z,8.95
2019-05-29T00:06:25.642Z,8.96
2019-05-29T00:07:25.631Z,8.95
2019-05-29T00:08:25.601Z,8.94
2019-05-29T00:09:25.671Z,8.94
2019-05-29T00:10:25.557Z,8.92
2019-05-29T00:11:25.547Z,8.92
2019-05-29T00:12:25.529Z,8.91
2019-05-29T00:13:25.568Z,8.91
2019-05-29T00:14:27.598Z,8.87
2019-05-29T00:15:25.497Z,8.86
2019-05-29T00:16:25.498Z,8.83
2019-05-29T00:17:25.477Z,8.81
2019-05-29T00:18:25.488Z,8.81
2019-05-29T00:19:25.598Z,8.79
2019-05-29T00:20:25.460Z,8.79
2019-05-29T00:21:25.428Z,8.76
2019-05-29T00:22:25.418Z,8.77
2019-05-29T00:23:25.460Z,8.79
2019-05-29T00:24:25.488Z,8.77
2019-05-29T00:25:25.388Z,8.74
2019-05-29T00:26:25.377Z,8.74
2019-05-29T00:27:25.449Z,8.73
2019-05-29T00:28:25.360Z,8.71
2019-05-29T00:29:25.359Z,8.70
2019-05-29T00:30:25.367Z,8.70
2019-05-29T00:31:25.327Z,8.68
2019-05-29T00:32:25.317Z,8.65
2019-05-29T00:33:25.298Z,8.65
2019-05-29T00:34:25.441Z,8.63
2019-05-29T00:35:25.287Z,8.61
2019-05-29T00:36:25.277Z,8.61
2019-05-29T00:37:25.298Z,8.58
2019-05-29T00:38:25.309Z,8.56
2019-05-29T00:39:25.246Z,8.55
2019-05-29T00:40:25.308Z,8.52
2019-05-29T00:41:25.221Z,8.50
2019-05-29T00:42:25.268Z,8.50
2019-05-29T00:43:25.309Z,8.48
2019-05-29T00:44:33.914Z,8.50
2019-05-29T00:45:26.208Z,8.50
2019-05-29T00:46:25.179Z,8.47
2019-05-29T00:47:25.154Z,8.45
2019-05-29T00:48:25.148Z,8.44
2019-05-29T00:49:25.180Z,8.43
2019-05-29T00:50:39.668Z,8.40
2019-05-29T00:51:25.239Z,8.38
2019-05-29T00:52:25.128Z,8.38
2019-05-29T00:53:25.125Z,8.37
2019-05-29T00:54:25.120Z,8.34
2019-05-29T00:55:25.058Z,8.34
2019-05-29T00:56:25.071Z,8.30
2019-05-29T00:57:25.048Z,8.33
2019-05-29T00:58:25.037Z,8.30
2019-05-29T00:59:25.027Z,8.30
2019-05-29T01:00:25.059Z,8.30
2019-05-29T01:01:24.999Z,8.29
2019-05-29T01:02:25.029Z,8.33
2019-05-29T01:03:25.127Z,8.34
2019-05-29T01:04:24.989Z,8.33
2019-05-29T01:05:24.969Z,8.34
2019-05-29T01:06:24.947Z,8.33
2019-05-29T01:07:24.929Z,8.33
2019-05-29T01:08:24.999Z,8.28
2019-05-29T01:09:24.931Z,8.25
2019-05-29T01:10:24.938Z,8.22
2019-05-29T01:11:24.888Z,8.20
2019-05-29T01:12:24.958Z,8.22
2019-05-29T01:13:24.907Z,8.20
2019-05-29T01:14:24.969Z,8.19
2019-05-29T01:15:24.878Z,8.16
2019-05-29T01:16:24.873Z,8.15
2019-05-29T01:17:24.819Z,8.12
2019-05-29T01:18:24.876Z,8.11
2019-05-29T01:19:24.797Z,8.08
2019-05-29T01:20:24.872Z,8.07
2019-05-29T01:21:25.348Z,8.07
2019-05-29T01:22:24.769Z,8.04
2019-05-29T01:23:24.758Z,8.01
2019-05-29T01:24:24.910Z,8.01
2019-05-29T01:25:24.768Z,8.01
2019-05-29T01:26:24.772Z,7.98
2019-05-29T01:27:24.718Z,7.97
2019-05-29T01:28:24.778Z,7.97
2019-05-29T01:29:24.689Z,7.95
2019-05-29T01:30:24.677Z,7.95
2019-05-29T01:31:24.678Z,7.93
2019-05-29T01:32:24.697Z,7.93
2019-05-29T01:33:25.067Z,7.92
2019-05-29T01:34:24.647Z,7.90
2019-05-29T01:35:24.643Z,7.89
2019-05-29T01:36:24.618Z,7.86
2019-05-29T01:37:24.612Z,7.86
2019-05-29T01:38:24.614Z,7.85
2019-05-29T01:39:24.598Z,7.83
2019-05-29T01:40:27.876Z,7.82
2019-05-29T01:41:24.569Z,7.80
2019-05-29T01:42:24.558Z,7.82
2019-05-29T01:43:24.537Z,7.79
2019-05-29T01:44:24.546Z,7.77
2019-05-29T01:45:24.527Z,7.77
2019-05-29T01:46:24.556Z,7.74
2019-05-29T01:47:24.538Z,7.72
2019-05-29T01:48:24.491Z,7.71
2019-05-29T01:49:24.491Z,7.69
2019-05-29T01:50:24.548Z,7.69
2019-05-29T01:51:24.463Z,7.69
2019-05-29T01:52:24.521Z,7.69
2019-05-29T01:53:24.468Z,7.68
2019-05-29T01:54:24.457Z,7.67
2019-05-29T01:55:24.546Z,7.64
2019-05-29T01:56:24.458Z,7.68
2019-05-29T01:57:24.388Z,7.68
2019-05-29T01:58:24.392Z,7.68
2019-05-29T01:59:24.384Z,7.67
2019-05-29T02:00:24.513Z,7.67
2019-05-29T02:01:24.356Z,7.67
2019-05-29T02:02:24.367Z,7.63
2019-05-29T02:03:24.364Z,7.63
2019-05-29T02:04:24.363Z,7.63
2019-05-29T02:05:24.311Z,7.58
2019-05-29T02:06:24.369Z,7.57
2019-05-29T02:07:24.292Z,7.57
2019-05-29T02:08:24.357Z,7.55
2019-05-29T02:09:24.368Z,7.53
2019-05-29T02:10:24.418Z,7.57
2019-05-29T02:11:24.238Z,7.53
2019-05-29T02:12:24.510Z,7.52
2019-05-29T02:13:24.220Z,7.52
2019-05-29T02:14:24.876Z,7.50
2019-05-29T02:15:32.091Z,7.49
2019-05-29T02:16:25.187Z,7.48
2019-05-29T02:17:24.232Z,7.46
2019-05-29T02:18:25.124Z,7.46
2019-05-29T02:19:24.158Z,7.43
2019-05-29T02:20:25.200Z,7.43
2019-05-29T02:21:24.279Z,7.43
2019-05-29T02:22:25.061Z,7.40
2019-05-29T02:23:24.262Z,7.39
2019-05-29T02:24:25.343Z,7.39
2019-05-29T02:25:24.341Z,7.39
2019-05-29T02:26:24.441Z,7.37
2019-05-29T02:27:24.077Z,7.39
2019-05-29T02:28:24.605Z,7.37
2019-05-29T02:29:24.879Z,7.37
2019-05-29T02:30:27.501Z,7.34
2019-05-29T02:31:27.077Z,7.32
2019-05-29T02:32:25.499Z,7.34
2019-05-29T02:33:24.641Z,7.32
2019-05-29T02:34:25.547Z,7.32
2019-05-29T02:35:24.777Z,7.31
2019-05-29T02:36:24.639Z,7.28
2019-05-29T02:37:24.409Z,7.25
2019-05-29T02:38:24.986Z,7.23
2019-05-29T02:39:25.626Z,7.20
2019-05-29T02:40:25.912Z,7.17
2019-05-29T02:41:25.706Z,7.16
2019-05-29T02:42:25.130Z,7.15
2019-05-29T02:43:25.431Z,7.13
2019-05-29T02:44:25.286Z,7.10
2019-05-29T02:45:31.612Z,7.06
2019-05-29T02:46:26.461Z,7.06
2019-05-29T02:47:25.785Z,7.03
2019-05-29T02:48:25.064Z,7.02
2019-05-29T02:49:23.967Z,6.97
2019-05-29T02:50:24.029Z,6.95
2019-05-29T02:51:24.192Z,6.95
2019-05-29T02:52:24.327Z,6.97
2019-05-29T02:53:24.497Z,6.94
2019-05-29T02:54:24.849Z,6.91
2019-05-29T02:55:24.513Z,6.89
2019-05-29T02:56:24.902Z,6.88
2019-05-29T02:57:24.640Z,6.85
2019-05-29T02:58:25.367Z,6.87
2019-05-29T02:59:25.491Z,6.84
2019-05-29T03:00:25.568Z,6.81
2019-05-29T03:01:25.164Z,6.80
2019-05-29T03:02:25.366Z,6.79
2019-05-29T03:03:24.409Z,6.76
2019-05-29T03:04:24.120Z,6.76
2019-05-29T03:05:23.906Z,6.74
2019-05-29T03:06:24.059Z,6.70
2019-05-29T03:07:24.333Z,6.67
2019-05-29T03:08:24.723Z,6.66
2019-05-29T03:09:24.716Z,6.61
2019-05-29T03:10:24.744Z,6.61
2019-05-29T03:11:25.032Z,6.58
2019-05-29T03:12:24.939Z,6.58
2019-05-29T03:13:25.251Z,6.56
2019-05-29T03:14:25.102Z,6.56
2019-05-29T03:15:24.076Z,6.54
2019-05-29T03:16:24.394Z,6.54
2019-05-29T03:17:23.742Z,6.48
2019-05-29T03:18:23.953Z,6.49
2019-05-29T03:19:23.931Z,6.46
2019-05-29T03:20:23.925Z,6.46
2019-05-29T03:21:24.058Z,6.44
2019-05-29T03:22:24.112Z,6.46
2019-05-29T03:23:24.217Z,6.44
2019-05-29T03:24:24.518Z,6.44
2019-05-29T03:25:24.314Z,6.44
2019-05-29T03:26:25.243Z,6.43
2019-05-29T03:27:23.438Z,6.43
2019-05-29T03:28:23.397Z,6.41
2019-05-29T03:29:23.396Z,6.43
2019-05-29T03:30:23.409Z,6.43
2019-05-29T03:31:23.397Z,6.43
2019-05-29T03:32:23.420Z,6.43
2019-05-29T03:33:23.385Z,6.40
2019-05-29T03:34:23.337Z,6.38
2019-05-29T03:35:23.448Z,6.38
2019-05-29T03:36:23.318Z,6.38
2019-05-29T03:37:23.326Z,6.37
2019-05-29T03:38:23.328Z,6.38
2019-05-29T03:39:23.315Z,6.38
2019-05-29T03:40:23.428Z,6.36
2019-05-29T03:41:23.248Z,6.37
2019-05-29T03:42:23.243Z,6.37
2019-05-29T03:43:23.238Z,6.38
2019-05-29T03:44:23.261Z,6.40
2019-05-29T03:45:23.397Z,6.40
2019-05-29T03:46:31.638Z,6.38
2019-05-29T03:47:24.234Z,6.36
2019-05-29T03:48:23.216Z,6.34
2019-05-29T03:49:23.199Z,6.31
2019-05-29T03:50:23.155Z,6.30
2019-05-29T03:51:23.229Z,6.31
2019-05-29T03:52:23.176Z,6.31
2019-05-29T03:53:23.146Z,6.31
2019-05-29T03:54:23.146Z,6.30
2019-05-29T03:55:23.216Z,6.30
2019-05-29T03:56:23.235Z,6.28
2019-05-29T03:57:23.115Z,6.31
2019-05-29T03:58:23.117Z,6.31
2019-05-29T03:59:23.087Z,6.31
2019-05-29T04:00:23.090Z,6.33
2019-05-29T04:01:23.065Z,6.31
2019-05-29T04:02:23.185Z,6.33
2019-05-29T04:03:23.046Z,6.33
2019-05-29T04:04:23.045Z,6.34
2019-05-29T04:05:22.987Z,6.33
2019-05-29T04:06:23.016Z,6.33
2019-05-29T04:07:23.086Z,6.33
2019-05-29T04:08:23.019Z,6.31
2019-05-29T04:09:22.990Z,6.33
2019-05-29T04:10:22.941Z,6.33
2019-05-29T04:11:22.926Z,6.33
2019-05-29T04:12:22.926Z,6.33
2019-05-29T04:13:22.920Z,6.33
2019-05-29T04:14:22.895Z,6.33
2019-05-29T04:15:22.899Z,6.34
2019-05-29T04:16:22.875Z,6.36
2019-05-29T04:17:22.869Z,6.37
2019-05-29T04:18:22.867Z,6.37
2019-05-29T04:19:22.863Z,6.36
2019-05-29T04:20:22.825Z,6.37
2019-05-29T04:21:22.815Z,6.41
2019-05-29T04:22:22.810Z,6.41
2019-05-29T04:23:22.804Z,6.41
2019-05-29T04:24:22.776Z,6.43
2019-05-29T04:25:22.775Z,6.44
2019-05-29T04:26:22.764Z,6.44
2019-05-29T04:27:22.744Z,6.48
2019-05-29T04:28:22.758Z,6.49
2019-05-29T04:29:22.767Z,6.51
2019-05-29T04:30:22.727Z,6.54
2019-05-29T04:31:22.705Z,6.55
2019-05-29T04:32:22.716Z,6.56
2019-05-29T04:33:22.704Z,6.58
2019-05-29T04:34:22.675Z,6.58
2019-05-29T04:35:22.675Z,6.58
2019-05-29T04:36:22.646Z,6.58
2019-05-29T04:37:22.669Z,6.59
2019-05-29T04:38:22.660Z,6.58
2019-05-29T04:39:22.629Z,6.56
2019-05-29T04:40:22.608Z,6.58
2019-05-29T04:41:22.609Z,6.55
2019-05-29T04:42:22.601Z,6.58
2019-05-29T04:43:22.575Z,6.59
2019-05-29T04:44:22.584Z,6.58
2019-05-29T04:45:22.566Z,6.59
2019-05-29T04:46:22.545Z,6.61
2019-05-29T04:47:22.532Z,6.61
2019-05-29T04:48:22.530Z,6.61
2019-05-29T04:49:22.524Z,6.61
2019-05-29T04:50:22.503Z,6.62
2019-05-29T04:51:22.495Z,6.62
2019-05-29T04:52:22.485Z,6.66
2019-05-29T04:53:22.473Z,6.71
2019-05-29T04:54:22.474Z,6.74
2019-05-29T04:55:22.456Z,6.79
2019-05-29T04:56:22.433Z,6.81
2019-05-29T04:57:22.426Z,6.81
2019-05-29T04:58:22.404Z,6.81
2019-05-29T04:59:22.404Z,6.85
2019-05-29T05:00:22.397Z,6.85
2019-05-29T05:01:22.374Z,6.85
2019-05-29T05:02:22.364Z,6.87
2019-05-29T05:03:22.353Z,6.89
2019-05-29T05:04:22.365Z,6.92
2019-05-29T05:05:22.354Z,6.97
2019-05-29T05:06:22.334Z,6.97
2019-05-29T05:07:22.313Z,6.99
2019-05-29T05:08:22.303Z,7.03
2019-05-29T05:09:22.294Z,7.05
2019-05-29T05:10:22.294Z,7.09
2019-05-29T05:11:22.314Z,7.12
2019-05-29T05:12:22.277Z,7.15
2019-05-29T05:13:22.254Z,7.16
2019-05-29T05:14:22.254Z,7.17
2019-05-29T05:15:22.246Z,7.24
2019-05-29T05:16:22.213Z,7.27
2019-05-29T05:17:26.110Z,7.31
2019-05-29T05:18:22.206Z,7.35
2019-05-29T05:19:22.197Z,7.40
2019-05-29T05:20:22.183Z,7.46
2019-05-29T05:21:22.187Z,7.53
2019-05-29T05:22:22.154Z,7.61
2019-05-29T05:23:22.145Z,7.72
2019-05-29T05:24:22.137Z,7.83
2019-05-29T05:25:22.123Z,7.90
2019-05-29T05:26:22.123Z,7.98
2019-05-29T05:27:22.096Z,8.10
2019-05-29T05:28:22.105Z,8.19
2019-05-29T05:29:22.114Z,8.29
2019-05-29T05:30:22.098Z,8.44
2019-05-29T05:31:22.053Z,8.56
2019-05-29T05:32:24.088Z,8.66
2019-05-29T05:33:22.074Z,8.80
2019-05-29T05:34:22.035Z,8.95
2019-05-29T05:35:22.017Z,9.11
2019-05-29T05:36:21.994Z,9.23
2019-05-29T05:37:21.999Z,9.43
2019-05-29T05:38:22.117Z,9.66
2019-05-29T05:39:22.274Z,9.90
2019-05-29T05:40:21.999Z,10.17
2019-05-29T05:41:21.954Z,10.52
2019-05-29T05:42:21.937Z,10.92
2019-05-29T05:43:24.352Z,11.35
2019-05-29T05:44:21.945Z,11.82
2019-05-29T05:45:21.904Z,12.37
2019-05-29T05:46:24.710Z,12.78
2019-05-29T05:47:21.994Z,13.22
2019-05-29T05:48:21.864Z,13.63
2019-05-29T05:49:21.854Z,13.99
2019-05-29T05:50:21.844Z,14.37
2019-05-29T05:51:21.944Z,14.52
2019-05-29T05:52:21.855Z,14.62
2019-05-29T05:53:21.843Z,14.80
2019-05-29T05:54:21.794Z,15.03
2019-05-29T05:55:21.798Z,15.17
2019-05-29T05:56:21.814Z,15.13
2019-05-29T05:57:21.795Z,14.95
2019-05-29T05:58:21.767Z,14.60
2019-05-29T05:59:21.790Z,14.14
2019-05-29T06:00:21.765Z,13.70
2019-05-29T06:01:21.754Z,13.42
2019-05-29T06:02:21.834Z,13.23
2019-05-29T06:03:21.734Z,13.08
2019-05-29T06:04:21.694Z,13.00
2019-05-29T06:05:21.716Z,12.87
2019-05-29T06:06:21.673Z,12.83
2019-05-29T06:07:21.709Z,12.86
2019-05-29T06:08:21.764Z,12.90
2019-05-29T06:09:21.715Z,13.07
2019-05-29T06:10:21.664Z,13.04
2019-05-29T06:11:21.605Z,13.01
2019-05-29T06:12:21.645Z,13.03
2019-05-29T06:13:21.637Z,13.03
2019-05-29T06:14:21.725Z,13.25
2019-05-29T06:15:21.613Z,13.54
2019-05-29T06:16:21.596Z,13.69
2019-05-29T06:17:22.066Z,13.92
2019-05-29T06:18:22.087Z,14.10
2019-05-29T06:19:21.534Z,14.32
2019-05-29T06:20:21.683Z,14.61
2019-05-29T06:21:21.565Z,14.86
2019-05-29T06:22:21.536Z,15.07
2019-05-29T06:23:21.499Z,15.28
2019-05-29T06:24:21.606Z,15.51
2019-05-29T06:25:21.501Z,15.87
2019-05-29T06:26:21.500Z,16.41
2019-05-29T06:27:21.497Z,16.88
2019-05-29T06:28:21.437Z,17.37
2019-05-29T06:29:21.535Z,17.87
2019-05-29T06:30:21.447Z,18.20
2019-05-29T06:31:21.430Z,18.55
2019-05-29T06:32:21.417Z,18.81
2019-05-29T06:33:21.377Z,19.08
2019-05-29T06:34:21.526Z,19.25
2019-05-29T06:35:21.401Z,19.25
2019-05-29T06:36:21.378Z,19.43
2019-05-29T06:37:21.367Z,19.13
2019-05-29T06:38:21.331Z,19.37
2019-05-29T06:39:21.347Z,19.23
2019-05-29T06:40:21.417Z,19.41
2019-05-29T06:41:21.278Z,19.62
2019-05-29T06:42:21.308Z,19.74
2019-05-29T06:43:21.307Z,19.99
2019-05-29T06:44:21.248Z,20.23
2019-05-29T06:45:21.409Z,20.31
2019-05-29T06:46:21.268Z,20.17
2019-05-29T06:47:21.251Z,20.35
2019-05-29T06:48:40.689Z,20.47
2019-05-29T06:49:22.230Z,20.73
2019-05-29T06:50:21.190Z,20.92
2019-05-29T06:51:21.209Z,21.25
2019-05-29T06:52:21.200Z,21.31
2019-05-29T06:53:21.163Z,21.42
2019-05-29T06:54:21.280Z,21.22
2019-05-29T06:55:21.253Z,21.14
2019-05-29T06:56:21.151Z,21.31
2019-05-29T06:57:25.621Z,21.19
2019-05-29T06:58:21.104Z,21.12
2019-05-29T06:59:21.134Z,21.21
2019-05-29T07:00:34.802Z,21.32
2019-05-29T07:01:22.235Z,21.34
2019-05-29T07:02:21.052Z,21.43
2019-05-29T07:03:21.085Z,21.44
2019-05-29T07:04:21.031Z,21.47
2019-05-29T07:05:21.065Z,21.29
2019-05-29T07:06:21.172Z,21.28
2019-05-29T07:07:21.025Z,21.31
2019-05-29T07:08:37.643Z,21.46
2019-05-29T07:09:22.013Z,21.69
2019-05-29T07:10:21.023Z,21.84
2019-05-29T07:11:20.962Z,22.03
2019-05-29T07:12:20.983Z,22.20
2019-05-29T07:13:20.984Z,22.22
2019-05-29T07:14:20.922Z,22.40
2019-05-29T07:15:20.934Z,22.49
2019-05-29T07:16:21.014Z,22.52
2019-05-29T07:17:21.004Z,22.49
2019-05-29T07:18:20.875Z,22.35
2019-05-29T07:19:32.747Z,22.24
2019-05-29T07:20:21.894Z,22.27
2019-05-29T07:21:20.868Z,22.36
2019-05-29T07:22:20.865Z,22.24
2019-05-29T07:23:20.836Z,22.06
2019-05-29T07:24:20.855Z,21.77
2019-05-29T07:25:20.836Z,21.64
2019-05-29T07:26:20.826Z,21.72
2019-05-29T07:27:20.874Z,21.94
2019-05-29T07:28:20.808Z,22.24
2019-05-29T07:29:20.796Z,22.43
2019-05-29T07:30:20.760Z,22.52
2019-05-29T07:31:20.776Z,22.70
2019-05-29T07:32:20.727Z,22.76
2019-05-29T07:33:20.868Z,22.62
2019-05-29T07:34:20.698Z,22.37
2019-05-29T07:35:20.697Z,22.15
2019-05-29T07:36:20.679Z,21.77
2019-05-29T07:37:20.842Z,21.74
2019-05-29T07:38:20.668Z,21.43
2019-05-29T07:39:20.690Z,21.47
2019-05-29T07:40:20.679Z,21.43
2019-05-29T07:41:20.627Z,21.49
2019-05-29T07:42:20.652Z,21.65
2019-05-29T07:43:20.616Z,21.79
2019-05-29T07:44:20.644Z,21.94
2019-05-29T07:45:20.630Z,21.91
2019-05-29T07:46:20.654Z,21.68
2019-05-29T07:47:20.717Z,21.65
2019-05-29T07:48:20.571Z,21.53
2019-05-29T07:49:35.916Z,21.77
2019-05-29T07:50:21.571Z,21.71
2019-05-29T07:51:20.562Z,21.54
2019-05-29T07:53:29.445Z,20.64
2019-05-29T07:54:29.430Z,20.10
2019-05-29T07:55:29.406Z,19.96
2019-05-29T07:56:29.440Z,20.18
2019-05-29T07:57:29.427Z,20.47
2019-05-29T07:58:29.531Z,20.57
2019-05-29T07:59:29.466Z,20.69
2019-05-29T08:00:35.465Z,20.59
2019-05-29T08:01:30.613Z,20.35
2019-05-29T08:02:29.369Z,20.11
2019-05-29T08:03:29.329Z,20.05
2019-05-29T08:04:29.451Z,20.10
2019-05-29T08:05:29.316Z,20.35
2019-05-29T08:06:29.326Z,20.61
2019-05-29T08:07:29.320Z,20.58
2019-05-29T08:08:29.312Z,20.51
2019-05-29T08:09:29.285Z,20.26
2019-05-29T08:10:29.412Z,20.29
2019-05-29T08:11:29.253Z,20.51
2019-05-29T08:12:29.275Z,20.69
2019-05-29T08:13:29.394Z,20.88
2019-05-29T08:14:29.244Z,21.04
2019-05-29T08:15:29.240Z,21.17
2019-05-29T08:16:29.222Z,21.27
2019-05-29T08:17:29.225Z,21.03
2019-05-29T08:18:29.172Z,20.55
2019-05-29T08:19:29.163Z,20.24
2019-05-29T08:20:29.182Z,20.11
2019-05-29T08:21:29.181Z,19.84
2019-05-29T08:22:34.146Z,19.48
2019-05-29T08:23:30.236Z,19.22
2019-05-29T08:24:29.266Z,19.26
2019-05-29T08:25:29.138Z,19.37
2019-05-29T08:26:29.115Z,19.44
2019-05-29T08:27:29.085Z,19.59
2019-05-29T08:28:29.097Z,19.80
2019-05-29T08:29:29.085Z,20.02
2019-05-29T08:30:29.075Z,20.20
2019-05-29T08:31:29.065Z,20.35
2019-05-29T08:32:29.186Z,20.41
2019-05-29T08:33:29.026Z,20.47
2019-05-29T08:34:29.041Z,20.52
2019-05-29T08:35:29.091Z,20.64
2019-05-29T08:36:29.018Z,20.84
2019-05-29T08:37:28.968Z,20.98
2019-05-29T08:38:28.998Z,21.07
2019-05-29T08:39:36.010Z,21.13
2019-05-29T08:40:30.098Z,21.19
2019-05-29T08:41:28.920Z,21.28
2019-05-29T08:42:28.915Z,21.27
2019-05-29T08:43:28.988Z,21.22
2019-05-29T08:44:28.930Z,21.34
2019-05-29T08:45:28.930Z,21.46
2019-05-29T08:46:28.909Z,21.44
2019-05-29T08:47:29.119Z,21.53
2019-05-29T08:48:28.894Z,21.68
2019-05-29T08:49:28.992Z,21.80
2019-05-29T08:50:28.872Z,21.96
2019-05-29T08:51:28.863Z,21.92
2019-05-29T08:52:28.855Z,21.96
2019-05-29T08:53:28.849Z,21.62
2019-05-29T08:54:28.823Z,21.43
2019-05-29T08:55:28.906Z,21.40
2019-05-29T08:56:28.858Z,21.47
2019-05-29T08:57:28.794Z,21.64
2019-05-29T08:58:28.784Z,21.77
2019-05-29T08:59:28.735Z,21.86
2019-05-29T09:00:28.735Z,21.86
2019-05-29T09:01:28.726Z,21.88
2019-05-29T09:02:28.786Z,21.91
2019-05-29T09:03:28.727Z,21.99
2019-05-29T09:04:28.696Z,22.03
2019-05-29T09:05:28.787Z,22.02
2019-05-29T09:06:28.698Z,22.02
2019-05-29T09:07:28.823Z,22.09
2019-05-29T09:08:28.708Z,22.18
2019-05-29T09:09:28.684Z,22.00
2019-05-29T09:10:28.760Z,21.64
2019-05-29T09:11:28.633Z,21.56
2019-05-29T09:12:29.956Z,21.65
2019-05-29T09:13:28.628Z,21.59
2019-05-29T09:14:28.620Z,21.53
2019-05-29T09:15:28.674Z,21.53
2019-05-29T09:16:28.561Z,21.62
2019-05-29T09:17:28.594Z,21.65
2019-05-29T09:18:28.712Z,21.69
2019-05-29T09:19:28.545Z,21.74
2019-05-29T09:20:50.163Z,21.84
2019-05-29T09:21:29.503Z,22.00
2019-05-29T09:22:28.514Z,22.07
2019-05-29T09:23:28.483Z,22.12
2019-05-29T09:24:28.494Z,22.18
2019-05-29T09:25:28.503Z,22.27
2019-05-29T09:26:28.575Z,22.42
2019-05-29T09:27:28.445Z,22.51
2019-05-29T09:28:28.476Z,22.57
2019-05-29T09:29:28.486Z,22.52
2019-05-29T09:30:28.470Z,22.37
2019-05-29T09:31:28.444Z,22.14
2019-05-29T09:32:48.371Z,21.88
2019-05-29T09:33:29.387Z,21.75
2019-05-29T09:34:28.428Z,21.74
2019-05-29T09:35:28.388Z,21.83
2019-05-29T09:36:28.358Z,21.98
2019-05-29T09:37:28.509Z,22.05
2019-05-29T09:38:28.340Z,22.07
2019-05-29T09:39:28.371Z,22.06
2019-05-29T09:40:28.339Z,22.00
2019-05-29T09:41:28.309Z,21.80
2019-05-29T09:42:28.413Z,21.47
2019-05-29T09:43:30.648Z,21.01
2019-05-29T09:44:38.401Z,20.73
2019-05-29T09:45:29.811Z,20.79
2019-05-29T09:46:28.291Z,20.84
2019-05-29T09:47:28.290Z,21.04
2019-05-29T09:48:28.895Z,21.34
2019-05-29T09:49:28.224Z,21.62
2019-05-29T09:50:46.471Z,21.74
2019-05-29T09:51:29.246Z,21.71
2019-05-29T09:52:30.644Z,21.50
2019-05-29T09:53:28.184Z,21.47
2019-05-29T09:54:28.377Z,21.59
2019-05-29T09:55:28.156Z,21.68
2019-05-29T09:56:28.195Z,21.72
2019-05-29T09:57:28.186Z,21.75
2019-05-29T09:58:28.302Z,21.84
2019-05-29T09:59:28.125Z,21.72
2019-05-29T10:00:28.157Z,21.56
2019-05-29T10:01:28.292Z,21.46
2019-05-29T10:02:28.128Z,21.46
2019-05-29T10:03:28.176Z,21.40
2019-05-29T10:04:28.081Z,21.32
2019-05-29T10:05:28.058Z,21.22
2019-05-29T10:06:28.091Z,20.99
2019-05-29T10:07:28.080Z,20.48
2019-05-29T10:08:28.188Z,20.13
2019-05-29T10:09:28.031Z,19.99
2019-05-29T10:10:28.049Z,19.83
2019-05-29T10:11:28.001Z,19.91
2019-05-29T10:12:28.031Z,20.05
2019-05-29T10:13:28.024Z,20.17
2019-05-29T10:14:28.021Z,20.43
2019-05-29T10:15:27.962Z,20.73
2019-05-29T10:16:28.009Z,21.06
2019-05-29T10:17:27.985Z,21.32
2019-05-29T10:18:32.489Z,21.61
2019-05-29T10:19:28.994Z,21.69
2019-05-29T10:20:27.955Z,21.62
2019-05-29T10:21:39.128Z,21.44
2019-05-29T10:22:28.884Z,20.98
2019-05-29T10:23:27.894Z,20.85
2019-05-29T10:24:27.910Z,20.92
2019-05-29T10:25:27.857Z,21.13
2019-05-29T10:26:27.846Z,21.34
2019-05-29T10:27:27.838Z,21.52
2019-05-29T10:28:27.857Z,21.68
2019-05-29T10:29:27.846Z,21.83
2019-05-29T10:30:27.847Z,22.03
2019-05-29T10:31:27.796Z,22.03
2019-05-29T10:32:27.818Z,22.12
2019-05-29T10:33:27.778Z,22.25
2019-05-29T10:34:27.789Z,22.43
2019-05-29T10:35:27.899Z,22.36
2019-05-29T10:36:27.815Z,22.06
2019-05-29T10:37:27.730Z,21.69
2019-05-29T10:38:27.770Z,21.74
2019-05-29T10:39:27.728Z,21.91
2019-05-29T10:40:27.841Z,22.06
2019-05-29T10:41:27.764Z,22.25
2019-05-29T10:42:27.721Z,22.43
2019-05-29T10:43:34.083Z,22.65
2019-05-29T10:44:28.834Z,22.90
2019-05-29T10:45:27.656Z,23.07
2019-05-29T10:46:27.764Z,23.31
2019-05-29T10:47:27.672Z,23.43
2019-05-29T10:48:27.663Z,23.48
2019-05-29T10:49:27.809Z,23.54
2019-05-29T10:50:27.651Z,23.68
2019-05-29T10:51:27.596Z,23.73
2019-05-29T10:52:27.606Z,23.79
2019-05-29T10:53:27.593Z,23.85
2019-05-29T10:54:27.619Z,23.84
2019-05-29T10:55:27.706Z,23.72
2019-05-29T10:56:27.723Z,23.76
2019-05-29T10:57:27.577Z,23.70
2019-05-29T10:58:27.581Z,23.51
2019-05-29T10:59:27.529Z,23.40
2019-05-29T11:00:27.582Z,23.43
2019-05-29T11:01:27.642Z,23.57
2019-05-29T11:02:27.520Z,23.70
2019-05-29T11:03:27.481Z,23.75
2019-05-29T11:04:27.480Z,23.63
2019-05-29T11:05:27.480Z,23.19
2019-05-29T11:06:27.492Z,22.92
2019-05-29T11:07:27.558Z,22.76
2019-05-29T11:08:27.470Z,22.67
2019-05-29T11:09:41.004Z,22.62
2019-05-29T11:10:28.531Z,22.62
2019-05-29T11:11:27.455Z,22.57
2019-05-29T11:12:27.448Z,22.37
2019-05-29T11:13:27.381Z,22.25
2019-05-29T11:14:27.422Z,22.21
2019-05-29T11:15:27.445Z,21.86
2019-05-29T11:16:27.439Z,21.64
2019-05-29T11:17:27.356Z,21.32
2019-05-29T11:18:27.334Z,20.91
2019-05-29T11:19:27.331Z,20.42
2019-05-29T11:20:27.303Z,20.26
2019-05-29T11:21:27.338Z,20.35
2019-05-29T11:22:27.337Z,20.21
2019-05-29T11:23:27.432Z,19.91
2019-05-29T11:24:27.306Z,19.65
2019-05-29T11:25:27.891Z,19.31
2019-05-29T11:26:27.295Z,19.22
2019-05-29T11:27:27.304Z,19.13
2019-05-29T11:28:27.386Z,19.23
2019-05-29T11:29:27.228Z,19.18
2019-05-29T11:30:27.252Z,19.07
2019-05-29T11:31:27.239Z,19.14
2019-05-29T11:32:27.184Z,19.40
2019-05-29T11:33:27.180Z,19.51
2019-05-29T11:34:27.180Z,19.54
2019-05-29T11:35:27.150Z,19.43
2019-05-29T11:36:27.202Z,19.40
2019-05-29T11:37:27.130Z,19.46
2019-05-29T11:38:27.265Z,19.50
2019-05-29T11:39:27.165Z,19.63
2019-05-29T11:40:27.116Z,19.83
2019-05-29T11:41:27.102Z,20.13
2019-05-29T11:42:28.177Z,20.51
2019-05-29T11:43:27.092Z,20.91
2019-05-29T11:44:27.116Z,21.01
2019-05-29T11:45:27.053Z,21.07
2019-05-29T11:46:27.084Z,21.32
2019-05-29T11:47:27.044Z,21.68
2019-05-29T11:48:27.062Z,21.88
2019-05-29T11:49:27.166Z,21.90
2019-05-29T11:50:27.059Z,21.83
2019-05-29T11:51:26.994Z,21.80
2019-05-29T11:52:41.626Z,21.84
2019-05-29T11:53:27.976Z,22.06
2019-05-29T11:54:27.086Z,22.25
2019-05-29T11:55:26.946Z,22.42
2019-05-29T11:56:26.992Z,22.57
2019-05-29T11:57:26.938Z,22.57
2019-05-29T11:58:31.285Z,22.45
2019-05-29T11:59:27.092Z,22.18
2019-05-29T12:00:27.018Z,21.82
2019-05-29T12:01:26.908Z,21.77
2019-05-29T12:02:26.919Z,21.80
2019-05-29T12:03:26.912Z,21.74
2019-05-29T12:04:27.173Z,21.62
2019-05-29T12:05:26.869Z,21.65
2019-05-29T12:06:26.900Z,21.80
2019-05-29T12:07:26.854Z,21.90
2019-05-29T12:08:26.873Z,21.58
2019-05-29T12:09:32.690Z,21.50
2019-05-29T12:10:27.921Z,21.47
2019-05-29T12:11:26.792Z,21.59
2019-05-29T12:12:26.788Z,21.80
2019-05-29T12:13:26.776Z,21.96
2019-05-29T12:14:26.807Z,22.03
2019-05-29T12:15:26.804Z,22.15
2019-05-29T12:16:26.801Z,22.17
2019-05-29T12:17:27.145Z,22.22
2019-05-29T12:18:26.764Z,22.24
2019-05-29T12:19:26.768Z,21.74
2019-05-29T12:20:28.415Z,21.03
2019-05-29T12:21:26.744Z,20.61
2019-05-29T12:22:26.702Z,20.54
2019-05-29T12:23:27.287Z,20.59
2019-05-29T12:24:26.708Z,20.79
2019-05-29T12:25:26.746Z,21.07
2019-05-29T12:26:26.806Z,21.25
2019-05-29T12:27:26.641Z,21.17
2019-05-29T12:28:26.710Z,21.32
2019-05-29T12:29:26.628Z,21.59
2019-05-29T12:30:26.608Z,21.84
2019-05-29T12:31:26.778Z,22.12
2019-05-29T12:32:26.588Z,22.42
2019-05-29T12:33:26.667Z,22.39
2019-05-29T12:34:26.569Z,22.24
2019-05-29T12:35:26.601Z,22.21
2019-05-29T12:36:26.593Z,22.20
2019-05-29T12:37:26.583Z,21.84
2019-05-29T12:38:26.532Z,21.43
2019-05-29T12:39:26.533Z,21.29
2019-05-29T12:40:26.567Z,21.03
2019-05-29T12:41:26.513Z,20.88
2019-05-29T12:42:26.501Z,20.84
2019-05-29T12:43:28.129Z,20.95
2019-05-29T12:44:26.476Z,21.19
2019-05-29T12:45:26.504Z,21.47
2019-05-29T12:46:26.453Z,21.68
2019-05-29T12:47:26.554Z,21.94
2019-05-29T12:48:26.472Z,22.20
2019-05-29T12:49:26.566Z,22.47
2019-05-29T12:50:26.482Z,22.62
2019-05-29T12:51:26.405Z,22.64
2019-05-29T12:52:26.425Z,22.64
2019-05-29T12:53:30.980Z,22.73
2019-05-29T12:54:27.408Z,22.68
2019-05-29T12:55:26.365Z,22.65
2019-05-29T12:56:26.422Z,22.64
2019-05-29T12:57:26.347Z,22.70
2019-05-29T12:58:26.356Z,22.76
2019-05-29T12:59:26.317Z,22.62
2019-05-29T13:00:26.349Z,22.45
2019-05-29T13:01:26.309Z,22.28
2019-05-29T13:02:26.329Z,22.30
2019-05-29T13:03:26.313Z,22.45
2019-05-29T13:04:26.321Z,22.65